Weather History for KJOT - August, 2013

Change the Weather History Date:

Tuesday, August 27, 2013

  Actual Average (KLOT) Record (KLOT)
Temperature  
Mean Temperature 82 °F 71 °F  
Max Temperature 92 °F 81 °F 93 °F (2013)
Min Temperature 72 °F 62 °F 55 °F (1992)
Degree Days  
Heating Degree Days 0 0  
Month to date heating degree days 0  
Since 1 June heating degree days 35  
Since 1 July heating degree days 2  
Cooling Degree Days 16 7  
Month to date cooling degree days 207  
Year to date cooling degree days 727  
Since 1 June cooling degree days 669  
Growing Degree Days 32 (Base 50)    
Moisture  
Dew Point 70 °F    
Average Humidity 67    
Maximum Humidity 88    
Minimum Humidity 48    
Precipitation  
Precipitation 0.00 in 0.12 in 1.87 in (2009)
Month to date precipitation 3.54  
Year to date precipitation 27.29  
Sea Level Pressure  
Sea Level Pressure 29.96 in    
Wind  
Wind Speed 6 mph (SW)    
Max Wind Speed 15 mph    
Max Gust Speed 20 mph    
Visibility 10 miles    
Events      
T = Trace of Precipitation, MM = Missing Value Source: NWS Daily Summary

Daily Weather History Graph

Daily Weather History Graph

Search for Another Location

Airport or City:

Trip Planner

Search our weather history database for the weather conditions in past years. The results will help you decide how hot, cold, wet, or windy it might be!

Date:

Astronomy

Aug. 27, 2013 Rise Set
Actual Time 6:14 AM CDT 7:33 PM CDT
Civil Twilight 5:45 AM CDT 8:02 PM CDT
Nautical Twilight 5:10 AM CDT 8:36 PM CDT
Astronomical Twilight 4:34 AM CDT 9:12 PM CDT
Moon 11:20 PM CDT (8/27) 1:17 PM CDT (8/27)
Length of Visible Light 14h 17m
Length of Day
13h 19m
Waning Gibbous, 57% of the Moon is Illuminated
Aug 27
Waning Gibbous
Aug 28
Last Quarter
Sep 5
New
Sep 12
First Quarter
Sep 19
Full

Hourly Weather History & Observations

Time (CDT) Temp. Heat Index Dew Point Humidity Pressure Visibility Wind Dir Wind Speed Gust Speed Precip Events Conditions
12:15 AM 74.5 °F - 70.0 °F 86% 30.04 in 7.0 mi SSW 3.5 mph - N/A   Clear
12:35 AM 74.3 °F - 69.8 °F 86% 30.04 in 10.0 mi SSW 3.5 mph - N/A   Clear
12:55 AM 73.6 °F - 69.4 °F 87% 30.03 in 10.0 mi Calm Calm - N/A   Clear
1:15 AM 73.6 °F - 69.4 °F 87% 30.03 in 10.0 mi SSW 3.5 mph - N/A   Clear
1:55 AM 74.5 °F - 69.3 °F 84% 30.02 in 10.0 mi SSW 3.5 mph - N/A   Clear
2:15 AM 74.3 °F - 69.1 °F 84% 30.02 in 10.0 mi SSW 4.6 mph - N/A   Clear
2:35 AM 72.9 °F - 68.9 °F 87% 30.01 in 10.0 mi SSW 3.5 mph - N/A   Clear
2:55 AM 72.5 °F - 68.9 °F 88% 30.00 in 10.0 mi SSW 3.5 mph - N/A   Clear
3:35 AM 73.8 °F - 68.5 °F 84% 29.99 in 10.0 mi SSW 4.6 mph - N/A   Clear
3:55 AM 74.5 °F - 68.9 °F 83% 29.99 in 10.0 mi SW 3.5 mph - N/A   Clear
4:15 AM 73.9 °F - 68.7 °F 84% 29.99 in 10.0 mi SSW 3.5 mph - N/A   Clear
4:35 AM 73.9 °F - 68.9 °F 84% 29.99 in 10.0 mi Calm Calm - N/A   Clear
4:55 AM 73.4 °F - 68.9 °F 86% 29.99 in 10.0 mi Calm Calm - N/A   Clear
5:15 AM 73.8 °F - 68.9 °F 85% 29.99 in 10.0 mi Calm Calm - N/A   Clear
5:35 AM 73.8 °F - 68.9 °F 85% 30.00 in 10.0 mi Calm Calm - N/A   Clear
5:55 AM 73.8 °F - 68.9 °F 85% 30.00 in 10.0 mi WSW 5.8 mph - N/A   Clear
6:35 AM 74.5 °F - 68.9 °F 83% 30.01 in 10.0 mi WSW 5.8 mph - N/A   Clear
6:55 AM 74.3 °F - 68.9 °F 83% 30.02 in 10.0 mi WSW 4.6 mph - N/A   Clear
7:15 AM 74.7 °F - 69.1 °F 83% 30.02 in 10.0 mi WSW 5.8 mph - N/A   Clear
7:35 AM 75.2 °F - 69.3 °F 82% 30.02 in 10.0 mi WSW 4.6 mph - N/A   Clear
7:55 AM 76.1 °F - 69.6 °F 80% 30.02 in 10.0 mi WSW 4.6 mph - N/A   Clear
8:15 AM 77.5 °F - 69.8 °F 77% 30.02 in 10.0 mi WSW 5.8 mph - N/A   Clear
8:35 AM 78.6 °F - 69.8 °F 74% 30.01 in 10.0 mi WSW 4.6 mph - N/A   Clear
8:55 AM 79.2 °F - 70.0 °F 73% 30.01 in 10.0 mi West 4.6 mph - N/A   Clear
9:15 AM 80.6 °F 83.9 °F 70.2 °F 70% 30.00 in 10.0 mi WSW 8.1 mph - N/A   Clear
9:35 AM 82.4 °F 86.5 °F 70.3 °F 67% 30.01 in 10.0 mi WSW 5.8 mph - N/A   Clear
9:55 AM 82.4 °F 86.5 °F 70.5 °F 67% 30.01 in 10.0 mi WSW 5.8 mph - N/A   Clear
10:15 AM 83.7 °F 88.0 °F 70.2 °F 64% 30.00 in 10.0 mi West 8.1 mph - N/A   Clear
10:35 AM 84.7 °F 89.1 °F 70.2 °F 61% 30.00 in 10.0 mi WSW 6.9 mph - N/A   Clear
11:15 AM 85.1 °F 89.4 °F 70.0 °F 60% 29.99 in 10.0 mi WSW 9.2 mph - N/A   Clear
11:35 AM 85.8 °F 90.8 °F 70.5 °F 60% 29.98 in 10.0 mi SW 5.8 mph - N/A   Clear
11:55 AM 86.7 °F 91.7 °F 70.5 °F 58% 29.98 in 10.0 mi WSW 10.4 mph - N/A   Clear
12:15 PM 87.6 °F 93.1 °F 70.9 °F 57% 29.97 in 10.0 mi SSW 8.1 mph - N/A   Clear
12:35 PM 88.9 °F 94.7 °F 71.1 °F 55% 29.96 in 10.0 mi SSW 11.5 mph - N/A   Clear
12:55 PM 89.6 °F 95.2 °F 70.5 °F 53% 29.95 in 10.0 mi WSW 9.2 mph 16.1 mph N/A   Clear
1:15 PM 89.8 °F 96.5 °F 71.4 °F 55% 29.95 in 10.0 mi SSW 12.7 mph 17.3 mph N/A   Clear
1:35 PM 90.9 °F 97.8 °F 71.6 °F 53% 29.94 in 10.0 mi SSW 12.7 mph 17.3 mph N/A   Clear
2:15 PM 91.2 °F 98.0 °F 71.2 °F 52% 29.94 in 10.0 mi SSW 11.5 mph - N/A   Clear
2:35 PM 91.9 °F 98.4 °F 71.1 °F 50% 29.93 in 10.0 mi South 12.7 mph 16.1 mph N/A   Clear
2:55 PM 91.0 °F 97.1 °F 70.5 °F 51% 29.92 in 10.0 mi SSW 13.8 mph 19.6 mph N/A   Clear
3:15 PM 91.2 °F 97.0 °F 70.3 °F 50% 29.92 in 10.0 mi SW 8.1 mph 19.6 mph N/A   Clear
3:35 PM 90.7 °F 96.9 °F 70.9 °F 52% 29.91 in 10.0 mi SSW 15.0 mph 19.6 mph N/A   Clear
3:55 PM 91.6 °F 97.7 °F 70.3 °F 50% 29.91 in 10.0 mi SW 11.5 mph 17.3 mph N/A   Clear
4:15 PM 91.6 °F 97.7 °F 70.5 °F 50% 29.91 in 10.0 mi SSW 10.4 mph 16.1 mph N/A   Clear
4:35 PM 91.4 °F 96.3 °F 69.4 °F 48% 29.90 in 10.0 mi SW 10.4 mph 18.4 mph N/A   Clear
4:55 PM 91.4 °F 96.3 °F 69.1 °F 48% 29.90 in 10.0 mi SW 11.5 mph - N/A   Clear
5:15 PM 91.0 °F 95.6 °F 68.9 °F 48% 29.90 in 10.0 mi SW 10.4 mph - N/A   Clear
5:35 PM 90.7 °F 95.9 °F 69.4 °F 50% 29.90 in 10.0 mi SW 6.9 mph - N/A   Clear
5:55 PM 89.8 °F 95.1 °F 70.0 °F 52% 29.90 in 10.0 mi SSW 8.1 mph 18.4 mph N/A   Clear
6:15 PM 89.1 °F 94.1 °F 70.2 °F 53% 29.90 in 10.0 mi SW 6.9 mph 17.3 mph N/A   Clear
6:35 PM 88.0 °F 93.4 °F 70.3 °F 56% 29.90 in 10.0 mi SW 8.1 mph - N/A   Clear
6:55 PM 87.1 °F 92.0 °F 70.2 °F 57% 29.90 in 10.0 mi SSW 8.1 mph - N/A   Clear
7:15 PM 86.2 °F 91.4 °F 70.7 °F 60% 29.90 in 10.0 mi SSW 8.1 mph - N/A   Clear
7:35 PM 85.1 °F 90.1 °F 70.7 °F 62% 29.90 in 10.0 mi SSW 8.1 mph - N/A   Clear
7:55 PM 84.4 °F 89.0 °F 70.7 °F 63% 29.90 in 10.0 mi SSW 6.9 mph - N/A   Clear
8:15 PM 83.5 °F 88.0 °F 70.5 °F 65% 29.91 in 10.0 mi SSW 5.8 mph - N/A   Clear
8:35 PM 82.8 °F 86.9 °F 70.2 °F 66% 29.91 in 10.0 mi SSW 8.1 mph - N/A   Clear
8:55 PM 82.8 °F 86.7 °F 70.0 °F 65% 29.91 in 10.0 mi SSW 6.9 mph - N/A   Clear
9:15 PM 82.4 °F 86.1 °F 69.4 °F 65% 29.92 in 10.0 mi SSW 6.9 mph - N/A   Clear
9:35 PM 81.5 °F 84.8 °F 69.3 °F 66% 29.92 in 10.0 mi SSW 5.8 mph - N/A   Clear
9:55 PM 81.0 °F 84.1 °F 68.9 °F 67% 29.92 in 10.0 mi SSW 6.9 mph - N/A   Clear
10:15 PM 80.6 °F 83.4 °F 68.4 °F 66% 29.91 in 10.0 mi SW 6.9 mph - N/A   Clear
10:35 PM 80.6 °F 83.2 °F 68.0 °F 65% 29.91 in 10.0 mi SW 5.8 mph - N/A   Clear
11:15 PM 80.6 °F 82.8 °F 66.6 °F 62% 29.90 in 10.0 mi SW 8.1 mph - N/A   Clear
11:35 PM 80.1 °F 82.1 °F 66.2 °F 62% 29.89 in 10.0 mi SW 9.2 mph - N/A   Clear
11:55 PM 80.6 °F 82.4 °F 65.1 °F 59% 29.89 in 10.0 mi WSW 9.2 mph - N/A   Clear